createdAt,value
2022-07-30T00:02:42.087Z,3.17
2022-07-30T00:06:04.030Z,3.20
2022-07-30T00:09:25.897Z,3.50
2022-07-30T00:12:49.046Z,3.60
2022-07-30T00:16:11.757Z,3.35
2022-07-30T00:19:34.141Z,3.10
2022-07-30T00:22:57.034Z,3.97
2022-07-30T00:26:18.721Z,3.33
2022-07-30T00:29:45.007Z,2.92
2022-07-30T00:33:08.075Z,2.80
2022-07-30T00:36:29.783Z,2.85
2022-07-30T00:39:51.656Z,2.90
2022-07-30T00:43:16.667Z,3.00
2022-07-30T00:46:40.208Z,3.20
2022-07-30T00:50:04.532Z,3.03
2022-07-30T00:53:26.305Z,3.03
2022-07-30T00:56:49.068Z,2.70
2022-07-30T01:00:14.451Z,3.03
2022-07-30T01:03:38.863Z,2.60
2022-07-30T01:07:00.962Z,2.60
2022-07-30T01:10:23.045Z,2.70
2022-07-30T01:13:45.650Z,2.80
2022-07-30T01:17:07.909Z,2.92
2022-07-30T01:20:34.475Z,2.50
2022-07-30T01:24:01.268Z,2.72
2022-07-30T01:27:26.177Z,2.60
2022-07-30T01:30:50.155Z,2.30
2022-07-30T01:34:14.942Z,2.75
2022-07-30T01:37:38.051Z,2.75
2022-07-30T01:41:01.150Z,3.00
2022-07-30T01:44:26.987Z,2.72
2022-07-30T01:47:50.393Z,3.03
2022-07-30T01:51:14.387Z,2.80
2022-07-30T01:54:41.387Z,2.80
2022-07-30T01:58:04.637Z,2.70
2022-07-30T02:01:29.496Z,3.17
2022-07-30T02:04:53.588Z,3.10
2022-07-30T02:08:19.842Z,2.65
2022-07-30T02:12:05.678Z,2.22
2022-07-30T02:15:32.985Z,2.30
2022-07-30T02:19:04.342Z,2.60
2022-07-30T02:22:34.561Z,2.20
2022-07-30T02:26:00.443Z,2.60
2022-07-30T02:29:24.877Z,2.92
2022-07-30T02:32:49.819Z,2.00
2022-07-30T02:36:14.676Z,2.08
2022-07-30T02:39:39.759Z,2.08
2022-07-30T02:43:02.664Z,2.20
2022-07-30T02:46:27.306Z,2.50
2022-07-30T02:50:10.684Z,2.53
2022-07-30T02:53:35.676Z,2.20
2022-07-30T02:56:58.083Z,2.25
2022-07-30T03:00:20.304Z,2.30
2022-07-30T03:03:43.872Z,2.13
2022-07-30T03:07:08.601Z,2.22
2022-07-30T03:10:33.685Z,2.10
2022-07-30T03:13:55.277Z,2.10
2022-07-30T03:17:18.332Z,2.08
2022-07-30T03:20:41.278Z,2.10
2022-07-30T03:24:04.320Z,2.30
2022-07-30T03:27:29.428Z,2.08
2022-07-30T03:30:51.840Z,1.92
2022-07-30T03:34:14.541Z,1.95
2022-07-30T03:37:38.174Z,2.30
2022-07-30T03:41:01.439Z,1.98
2022-07-30T03:44:24.808Z,2.05
2022-07-30T03:47:47.801Z,2.03
2022-07-30T03:51:11.032Z,1.90
2022-07-30T03:54:36.301Z,1.77
2022-07-30T03:58:27.397Z,1.80
2022-07-30T04:01:55.656Z,1.95
2022-07-30T04:05:45.912Z,2.17
2022-07-30T04:09:09.217Z,1.90
2022-07-30T04:12:31.335Z,1.77
2022-07-30T04:16:05.046Z,1.85
2022-07-30T04:19:48.148Z,1.77
2022-07-30T04:23:11.735Z,1.90
2022-07-30T04:26:36.106Z,2.03
2022-07-30T04:29:59.864Z,1.98
2022-07-30T04:33:21.852Z,1.80
2022-07-30T04:37:14.398Z,1.80
2022-07-30T04:40:36.122Z,1.60
2022-07-30T04:43:58.105Z,1.88
2022-07-30T04:47:21.429Z,1.73
2022-07-30T04:51:21.096Z,1.80
2022-07-30T04:54:50.157Z,1.60
2022-07-30T04:58:14.631Z,2.05
2022-07-30T05:01:40.640Z,1.95
2022-07-30T05:05:04.797Z,1.92
2022-07-30T05:08:28.145Z,1.65
2022-07-30T05:11:56.247Z,1.70
2022-07-30T05:15:18.604Z,2.30
2022-07-30T05:18:40.473Z,2.05
2022-07-30T05:22:06.583Z,1.80
2022-07-30T05:25:30.090Z,1.73
2022-07-30T05:29:04.064Z,1.60
2022-07-30T05:32:51.549Z,1.52
2022-07-30T05:36:13.529Z,1.73
2022-07-30T05:39:35.543Z,1.95
2022-07-30T05:43:41.992Z,1.88
2022-07-30T05:47:05.029Z,1.80
2022-07-30T05:50:26.883Z,1.55
2022-07-30T05:53:48.480Z,1.60
2022-07-30T05:57:42.034Z,1.88
2022-07-30T06:01:03.641Z,1.60
2022-07-30T06:04:28.117Z,1.70
2022-07-30T06:07:55.270Z,1.50
2022-07-30T06:11:18.417Z,1.88
2022-07-30T06:14:40.574Z,1.88
2022-07-30T06:18:05.549Z,1.50
2022-07-30T06:22:02.119Z,2.05
2022-07-30T06:25:24.456Z,1.70
2022-07-30T06:28:46.229Z,2.03
2022-07-30T06:32:12.564Z,1.65
2022-07-30T06:35:34.534Z,1.70
2022-07-30T06:38:57.545Z,1.73
2022-07-30T06:42:31.457Z,2.00
2022-07-30T06:46:16.030Z,1.60
2022-07-30T06:49:41.662Z,1.60
2022-07-30T06:53:05.395Z,1.70
2022-07-30T06:56:48.574Z,1.70
2022-07-30T07:00:11.866Z,1.48
2022-07-30T07:03:39.854Z,1.92
2022-07-30T07:07:12.665Z,1.77
2022-07-30T07:10:36.411Z,1.80
2022-07-30T07:14:25.429Z,1.77
2022-07-30T07:17:47.242Z,1.80
2022-07-30T07:21:26.319Z,1.90
2022-07-30T07:24:49.557Z,1.85
2022-07-30T07:28:18.238Z,1.60
2022-07-30T07:32:02.805Z,1.90
2022-07-30T07:35:23.655Z,1.90
2022-07-30T07:38:45.484Z,1.65
2022-07-30T07:42:08.036Z,1.50
2022-07-30T07:45:32.042Z,1.58
2022-07-30T07:49:01.285Z,1.70
2022-07-30T07:52:29.385Z,2.13
2022-07-30T07:55:51.219Z,1.67
2022-07-30T07:59:17.190Z,1.70
2022-07-30T08:02:39.733Z,1.67
2022-07-30T08:06:06.801Z,1.85
2022-07-30T08:09:51.924Z,1.75
2022-07-30T08:13:52.126Z,1.90
2022-07-30T08:17:25.069Z,1.67
2022-07-30T08:21:08.603Z,1.50
2022-07-30T08:24:30.423Z,1.90
2022-07-30T08:27:52.556Z,1.63
2022-07-30T08:31:14.846Z,2.30
2022-07-30T08:34:36.569Z,1.80
2022-07-30T08:38:00.184Z,1.60
2022-07-30T08:41:23.875Z,1.70
2022-07-30T08:44:47.035Z,1.63
2022-07-30T08:48:16.282Z,1.90
2022-07-30T08:51:40.085Z,1.58
2022-07-30T08:55:22.412Z,1.80
2022-07-30T08:58:44.548Z,1.42
2022-07-30T09:02:10.385Z,1.67
2022-07-30T09:05:48.546Z,1.60
2022-07-30T09:09:11.059Z,1.77
2022-07-30T09:12:40.390Z,1.67
2022-07-30T09:16:03.399Z,1.85
2022-07-30T09:19:27.047Z,1.50
2022-07-30T09:22:50.276Z,1.67
2022-07-30T09:26:32.979Z,1.80
2022-07-30T09:30:50.241Z,2.47
2022-07-30T09:34:32.259Z,1.70
2022-07-30T09:38:06.471Z,1.40
2022-07-30T09:41:58.375Z,1.52
2022-07-30T09:45:20.018Z,1.50
2022-07-30T09:48:44.746Z,1.63
2022-07-30T09:52:06.913Z,2.00
2022-07-30T09:55:34.541Z,1.52
2022-07-30T09:58:56.462Z,1.55
2022-07-30T10:02:19.534Z,1.67
2022-07-30T10:06:03.822Z,1.95
2022-07-30T10:09:30.675Z,1.48
2022-07-30T10:12:54.235Z,1.60
2022-07-30T10:16:16.327Z,1.70
2022-07-30T10:19:40.482Z,1.60
2022-07-30T10:23:27.070Z,1.50
2022-07-30T10:27:10.233Z,1.90
2022-07-30T10:30:46.303Z,1.63
2022-07-30T10:34:11.874Z,1.60
2022-07-30T10:37:35.869Z,1.60
2022-07-30T10:41:06.171Z,1.60
2022-07-30T10:44:59.958Z,1.63
2022-07-30T10:48:22.694Z,1.70
2022-07-30T10:51:46.782Z,1.67
2022-07-30T10:55:15.858Z,1.58
2022-07-30T10:58:58.578Z,1.40
2022-07-30T11:02:24.949Z,1.33
2022-07-30T11:05:51.445Z,1.60
2022-07-30T11:09:36.475Z,1.50
2022-07-30T11:13:03.355Z,1.40
2022-07-30T11:17:04.019Z,1.27
2022-07-30T11:20:26.339Z,1.40
2022-07-30T11:23:49.529Z,1.80
2022-07-30T11:27:41.781Z,1.98
2022-07-30T11:31:10.353Z,1.48
2022-07-30T11:34:33.645Z,1.50
2022-07-30T11:38:04.236Z,1.65
2022-07-30T11:41:26.885Z,1.42
2022-07-30T11:44:48.862Z,1.60
2022-07-30T11:48:13.017Z,1.83
2022-07-30T11:51:43.697Z,2.15
2022-07-30T11:55:06.354Z,1.40
2022-07-30T11:58:30.049Z,1.35
2022-07-30T12:01:56.021Z,1.60
2022-07-30T12:05:24.417Z,1.73
2022-07-30T12:08:49.071Z,1.75
2022-07-30T12:12:23.574Z,1.70
2022-07-30T12:15:47.511Z,1.80
2022-07-30T12:19:09.838Z,1.63
2022-07-30T12:22:34.181Z,1.58
2022-07-30T12:25:58.499Z,1.52
2022-07-30T12:29:20.757Z,1.75
2022-07-30T12:32:42.828Z,1.85
2022-07-30T12:36:05.350Z,1.83
2022-07-30T12:39:28.119Z,1.40
2022-07-30T12:42:54.832Z,1.45
2022-07-30T12:46:19.463Z,1.65
2022-07-30T12:49:48.833Z,2.15
2022-07-30T12:53:11.407Z,1.25
2022-07-30T12:56:32.874Z,1.70
2022-07-30T13:00:06.574Z,1.70
2022-07-30T13:03:39.173Z,1.70
2022-07-30T13:07:05.190Z,1.50
2022-07-30T13:10:31.133Z,1.60
2022-07-30T13:13:53.979Z,1.70
2022-07-30T13:17:17.012Z,1.70
2022-07-30T13:20:39.103Z,1.50
2022-07-30T13:24:01.553Z,1.50
2022-07-30T13:27:23.334Z,1.45
2022-07-30T13:30:45.664Z,1.63
2022-07-30T13:34:08.683Z,1.80
2022-07-30T13:37:37.474Z,1.77
2022-07-30T13:41:02.611Z,1.50
2022-07-30T13:44:24.595Z,1.50
2022-07-30T13:47:46.580Z,1.88
2022-07-30T13:51:09.837Z,1.83
2022-07-30T13:54:31.727Z,1.50
2022-07-30T13:57:53.559Z,1.50
2022-07-30T14:01:18.192Z,1.42
2022-07-30T14:04:40.428Z,1.98
2022-07-30T14:08:04.643Z,1.88
2022-07-30T14:11:26.960Z,1.67
2022-07-30T14:14:49.308Z,1.88
2022-07-30T14:18:11.205Z,1.75
2022-07-30T14:21:33.179Z,1.60
2022-07-30T14:24:56.494Z,2.05
2022-07-30T14:28:17.984Z,2.00
2022-07-30T14:31:40.615Z,1.55
2022-07-30T14:35:02.224Z,1.70
2022-07-30T14:38:25.451Z,1.60
2022-07-30T14:41:52.296Z,1.58
2022-07-30T14:45:17.693Z,1.88
2022-07-30T14:48:39.583Z,1.70
2022-07-30T14:52:01.962Z,1.75
2022-07-30T14:55:23.835Z,1.60
2022-07-30T14:58:46.982Z,1.90
2022-07-30T15:02:10.887Z,1.70
2022-07-30T15:05:32.707Z,1.55
2022-07-30T15:08:54.585Z,1.70
2022-07-30T15:12:23.886Z,1.90
2022-07-30T15:15:50.375Z,2.00
2022-07-30T15:19:13.663Z,1.85
2022-07-30T15:22:35.628Z,1.95
2022-07-30T15:25:57.233Z,1.60
2022-07-30T15:29:21.071Z,1.65
2022-07-30T15:32:44.742Z,1.88
2022-07-30T15:36:07.285Z,1.90
2022-07-30T15:39:29.626Z,2.00
2022-07-30T15:42:51.277Z,1.77
2022-07-30T15:46:13.173Z,1.65
2022-07-30T15:49:36.274Z,1.85
2022-07-30T15:52:58.497Z,1.80
2022-07-30T15:56:20.737Z,1.70
2022-07-30T15:59:42.299Z,1.77
2022-07-30T16:03:04.302Z,1.70
2022-07-30T16:06:27.673Z,1.70
2022-07-30T16:09:49.503Z,1.75
2022-07-30T16:13:11.240Z,1.60
2022-07-30T16:16:32.928Z,1.60
2022-07-30T16:19:55.017Z,1.42
2022-07-30T16:23:21.250Z,1.70
2022-07-30T16:26:43.481Z,1.95
2022-07-30T16:30:05.722Z,1.75
2022-07-30T16:33:27.664Z,1.63
2022-07-30T16:36:49.467Z,1.90
2022-07-30T16:40:13.583Z,1.63
2022-07-30T16:43:35.948Z,1.65
2022-07-30T16:46:57.714Z,1.83
2022-07-30T16:50:20.005Z,1.80
2022-07-30T16:53:41.823Z,1.70
2022-07-30T16:57:10.385Z,1.75
2022-07-30T17:00:32.387Z,1.75
2022-07-30T17:03:54.084Z,1.75
2022-07-30T17:07:16.067Z,1.52
2022-07-30T17:10:37.623Z,1.60
2022-07-30T17:14:04.167Z,1.63
2022-07-30T17:17:25.721Z,1.77
2022-07-30T17:20:47.644Z,1.83
2022-07-30T17:24:13.490Z,1.90
2022-07-30T17:27:35.671Z,1.63
2022-07-30T17:30:58.625Z,1.60
2022-07-30T17:34:21.400Z,2.10
2022-07-30T17:37:42.979Z,2.42
2022-07-30T17:41:04.829Z,2.30
2022-07-30T17:44:27.181Z,1.48
2022-07-30T17:47:49.811Z,1.42
2022-07-30T17:51:11.616Z,1.60
2022-07-30T17:54:33.539Z,1.80
2022-07-30T17:57:55.652Z,1.75
2022-07-30T18:01:17.835Z,1.50
2022-07-30T18:04:41.176Z,1.70
2022-07-30T18:08:03.023Z,1.70
2022-07-30T18:11:25.629Z,1.60
2022-07-30T18:14:47.505Z,1.63
2022-07-30T18:18:09.436Z,1.73
2022-07-30T18:21:32.342Z,1.60
2022-07-30T18:24:53.825Z,1.67
2022-07-30T18:28:15.611Z,2.00
2022-07-30T18:31:37.390Z,2.35
2022-07-30T18:34:59.283Z,2.90
2022-07-30T18:38:22.715Z,2.45
2022-07-30T18:41:45.916Z,2.20
2022-07-30T18:45:08.608Z,2.15
2022-07-30T18:48:30.407Z,2.17
2022-07-30T18:51:52.354Z,2.67
2022-07-30T18:55:17.319Z,2.10
2022-07-30T18:58:39.258Z,2.15
2022-07-30T19:02:01.445Z,2.38
2022-07-30T19:05:23.069Z,2.25
2022-07-30T19:08:44.713Z,2.35
2022-07-30T19:12:08.165Z,2.83
2022-07-30T19:15:29.891Z,2.78
2022-07-30T19:18:51.921Z,2.30
2022-07-30T19:22:13.621Z,3.00
2022-07-30T19:25:37.118Z,2.58
2022-07-30T19:29:00.080Z,2.60
2022-07-30T19:32:21.593Z,4.07
2022-07-30T19:35:43.479Z,3.20
2022-07-30T19:39:07.410Z,2.65
2022-07-30T19:42:29.300Z,4.20
2022-07-30T19:45:53.510Z,3.90
2022-07-30T19:49:19.840Z,3.08
2022-07-30T19:52:51.373Z,2.22
2022-07-30T19:56:13.242Z,2.15
2022-07-30T19:59:45.012Z,2.30
2022-07-30T20:03:12.702Z,4.97
2022-07-30T20:06:36.275Z,5.30
2022-07-30T20:10:00.396Z,6.28
2022-07-30T20:13:23.418Z,5.55
2022-07-30T20:16:45.565Z,4.40
2022-07-30T20:20:09.772Z,5.15
2022-07-30T20:23:31.638Z,3.88
2022-07-30T20:26:53.565Z,5.18
2022-07-30T20:30:15.352Z,4.47
2022-07-30T20:33:39.129Z,4.60
2022-07-30T20:37:15.083Z,4.05
2022-07-30T20:40:46.565Z,4.28
2022-07-30T20:44:11.137Z,3.17
2022-07-30T20:47:38.714Z,3.38
2022-07-30T20:51:00.424Z,3.67
2022-07-30T20:54:23.674Z,2.90
2022-07-30T20:58:01.132Z,3.08
2022-07-30T21:01:28.373Z,3.10
2022-07-30T21:04:56.659Z,3.50
2022-07-30T21:08:25.170Z,3.25
2022-07-30T21:11:50.411Z,3.22
2022-07-30T21:15:23.887Z,3.22
2022-07-30T21:18:50.475Z,3.22
2022-07-30T21:22:12.213Z,3.83
2022-07-30T21:25:41.524Z,4.13
2022-07-30T21:29:19.505Z,4.35
2022-07-30T21:32:42.222Z,4.53
2022-07-30T21:36:04.174Z,4.30
2022-07-30T21:39:29.145Z,4.20
2022-07-30T21:42:50.718Z,3.53
2022-07-30T21:46:14.500Z,4.28
2022-07-30T21:49:36.327Z,3.53
2022-07-30T21:52:58.074Z,3.00
2022-07-30T21:56:20.425Z,3.05
2022-07-30T21:59:42.119Z,3.10
2022-07-30T22:03:12.421Z,3.00
2022-07-30T22:06:47.058Z,3.60
2022-07-30T22:10:09.461Z,3.60
2022-07-30T22:13:32.555Z,3.28
2022-07-30T22:16:54.578Z,2.83
2022-07-30T22:20:17.697Z,3.40
2022-07-30T22:23:40.338Z,3.00
2022-07-30T22:27:16.742Z,2.67
2022-07-30T22:30:38.583Z,2.95
2022-07-30T22:34:00.509Z,3.45
2022-07-30T22:37:23.417Z,3.35
2022-07-30T22:40:44.898Z,3.20
2022-07-30T22:44:06.726Z,3.00
2022-07-30T22:47:51.500Z,2.85
2022-07-30T22:51:16.095Z,3.70
2022-07-30T22:54:39.735Z,2.83
2022-07-30T22:58:01.496Z,3.13
2022-07-30T23:01:23.270Z,3.10
2022-07-30T23:04:45.254Z,3.00
2022-07-30T23:08:07.364Z,3.00
2022-07-30T23:11:37.169Z,3.10
2022-07-30T23:14:59.753Z,2.95
2022-07-30T23:18:21.298Z,2.90
2022-07-30T23:21:48.654Z,2.72
2022-07-30T23:25:12.052Z,3.45
2022-07-30T23:28:35.373Z,3.33
2022-07-30T23:31:57.417Z,2.95
2022-07-30T23:35:19.141Z,3.22
2022-07-30T23:38:40.994Z,3.10
2022-07-30T23:42:02.698Z,2.78
2022-07-30T23:45:26.035Z,3.08
2022-07-30T23:48:47.861Z,3.28
2022-07-30T23:52:09.967Z,3.63
2022-07-30T23:55:33.398Z,2.90
2022-07-30T23:58:55.142Z,3.10
